Huvudsida
METAR-TAF:

METAR-TAF

Flygplatser :

Skaraborgs flygflottilj

Såtenäs, Sverige

latitud: 58-26N, longitud: 012-42E, höjd: 54 m

Aktuellt väderrapport

Denna rapport gjordes för 32 minuter sedan, klockan 12:20 UTC
Vind 18 kt från syd
Temperatur 17°C
Fuktighet 88%
Tryck 1013 hPa
Sikt 10 km eller mer

METAR: ESIB 181220Z AUTO 19018KT 9999 BKN015/// OVC031/// 17/15 Q1013

Tid: 14:52 (12:52 UTC)


TAF: saknas

Aktuella väderrapporter och prognoser från 4000 flygplatser (METAR- och TAF-rapporter).

De tillgängliga stationerna syns som gula och röda prickar på kartan.

För musen över prickarna för att se namnen på stationerna.

Klicka sedan för att få väderrapporter och prognoser.

För att ändra kartan: Klicka på de gröna knapparna med ett svart kors på för att zooma in; den gröna knappen med ett streck på för att zooma ut; eller på de gröna pilarna för angränsande kartor.


METAR-TAF: